(°C)
23°
21°
20°
19°
18°
17°
16°
(°C)
21°
20°
19°
18°
17°
17°
16°
SSE
جنوب
جنوب
جنوب
جنوب
جنوب
جنوب
(كم/سا)
11-20
11-20
10-17
7-16
5-15
4-13
4-12
(مم)
0
0
0
0
0
0
0
(%)
0
0
0
0
0
0
0

مستوى ارتفاع الشمس

/ 21.8°
sun-icon
UV 3
08:24
19:12
الربع الأخير (266°)
00:01
15:20

متر لAlcantarilla (LERI)

الوقت الشروط درجة الحرارة/
نقطة الندى
رياح مجال رؤية حالة الطقس غيوم الضغط تغيير خام
VFR 23°C / 12°C 120º variable 060º to 160º 4kt >10km - Few Clouds 3800ft 1016 No Significant change LERI 281430Z 12004KT 060V160 9999 FEW038 23/12 Q1016 NOSIG
VFR 23°C / 11°C variable 1kt >10km - Few Clouds 3500ft 1016 No Significant change LERI 281400Z VRB01KT 9999 FEW035 23/11 Q1016 NOSIG
VFR 23°C / 11°C 210º 1kt >10km - Few Clouds 3400ft 1017 No Significant change LERI 281330Z 21001KT 9999 FEW034 23/11 Q1017 NOSIG
VFR 23°C / 10°C variable 2kt >10km - Few Clouds 3200ft 1017 No Significant change LERI 281300Z VRB02KT 9999 FEW032 23/10 Q1017 NOSIG
VFR 23°C / 10°C 170º 1kt >10km - Few Clouds 3000ft 1017 No Significant change LERI 281230Z 17001KT 9999 FEW030 23/10 Q1017 NOSIG
VFR 22°C / 12°C variable 3kt >10km - Few Clouds 3000ft 1018 No Significant change LERI 281200Z VRB03KT 9999 FEW030 22/12 Q1018 NOSIG
VFR 21°C / 13°C variable 2kt >10km - Few Clouds 3200ft 1018 No Significant change LERI 281130Z VRB02KT 9999 FEW032 21/13 Q1018 NOSIG
VFR 20°C / 12°C variable 2kt >10km - Few Clouds 3200ft 1019 No Significant change LERI 281100Z VRB02KT 9999 FEW032 20/12 Q1019 NOSIG
VFR 18°C / 12°C variable 2kt >10km - Few Clouds 3000ft 1019 No Significant change LERI 281030Z VRB02KT 9999 FEW030 18/12 Q1019 NOSIG
VFR 18°C / 12°C variable 1kt >10km - Few Clouds 3000ft 1019 No Significant change LERI 281000Z VRB01KT 9999 FEW030 18/12 Q1019 NOSIG
VFR 17°C / 11°C variable 1kt >10km - Few Clouds 3000ft 1019 No Significant change LERI 280930Z VRB01KT 9999 FEW030 17/11 Q1019 NOSIG
VFR 15°C / 12°C 130º variable 080º to 170º 3kt >10km - Few Clouds 3300ft 1020 No Significant change LERI 280900Z 13003KT 080V170 9999 FEW033 15/12 Q1020 NOSIG
VFR 14°C / 12°C variable 2kt >10km - Clouds and Visibility OK 1019 No Significant change LERI 280830Z VRB02KT CAVOK 14/12 Q1019 NOSIG
VFR 13°C / 12°C variable 0kt >10km - Clouds and Visibility OK 1019 No Significant change LERI 280800Z 00000KT CAVOK 13/12 Q1019 NOSIG
VFR 12°C / 11°C variable 0kt >10km - Clouds and Visibility OK 1019 No Significant change LERI 280730Z 00000KT CAVOK 12/11 Q1019 NOSIG
VFR 11°C / 10°C 240º 2kt >10km - Clouds and Visibility OK 1019 No Significant change LERI 280700Z 24002KT CAVOK 11/10 Q1019 NOSIG
VFR 10°C / 10°C 240º 2kt >10km - Clouds and Visibility OK 1019 No Significant change LERI 280630Z 24002KT CAVOK 10/10 Q1019 NOSIG
VFR 11°C / 10°C 220º 4kt >10km - Few Clouds 3600ft 1019 No Significant change LERI 280600Z 22004KT 9999 FEW036 11/10 Q1019 NOSIG
VFR 18°C / 12°C 110º variable 070º to 130º 5kt >10km - Few Clouds 4600ft 1020 No Significant change LERI 271800Z 11005KT 070V130 9999 FEW046 18/12 Q1020 NOSIG
VFR 18°C / 12°C 90º variable 070º to 130º 5kt >10km - Few Clouds 4500ft 1020 No Significant change LERI 271730Z 09005KT 070V130 9999 FEW045 18/12 Q1020 NOSIG
VFR 19°C / 13°C 130º 4kt >10km - Few Clouds 4600ft 1020 No Significant change LERI 271700Z 13004KT 9999 FEW046 19/13 Q1020 NOSIG
VFR 21°C / 14°C 150º variable 110º to 170º 5kt >10km - Few Clouds 4400ft 1020 No Significant change LERI 271630Z 15005KT 110V170 9999 FEW044 21/14 Q1020 NOSIG
VFR 21°C / 13°C 160º variable 130º to 200º 6kt >10km - Few Clouds 4300ft 1020 No Significant change LERI 271600Z 16006KT 130V200 9999 FEW043 21/13 Q1020 NOSIG
VFR 22°C / 12°C 130º variable 080º to 160º 5kt >10km - Few Clouds 4000ft 1020 No Significant change LERI 271530Z 13005KT 080V160 9999 FEW040 22/12 Q1020 NOSIG

VFR

23°C / 12°C

[أكثر]
رياح 120º variable 060º to 160º 4kt
مجال رؤية >10km
حالة الطقس -
غيوم Few Clouds 3800ft
الضغط 1016
تغيير No Significant change
خام LERI 281430Z 12004KT 060V160 9999 FEW038 23/12 Q1016 NOSIG

VFR

23°C / 11°C

[أكثر]
رياح variable 1kt
مجال رؤية >10km
حالة الطقس -
غيوم Few Clouds 3500ft
الضغط 1016
تغيير No Significant change
خام LERI 281400Z VRB01KT 9999 FEW035 23/11 Q1016 NOSIG

VFR

23°C / 11°C

[أكثر]
رياح 210º 1kt
مجال رؤية >10km
حالة الطقس -
غيوم Few Clouds 3400ft
الضغط 1017
تغيير No Significant change
خام LERI 281330Z 21001KT 9999 FEW034 23/11 Q1017 NOSIG

VFR

23°C / 10°C

[أكثر]
رياح variable 2kt
مجال رؤية >10km
حالة الطقس -
غيوم Few Clouds 3200ft
الضغط 1017
تغيير No Significant change
خام LERI 281300Z VRB02KT 9999 FEW032 23/10 Q1017 NOSIG

VFR

23°C / 10°C

[أكثر]
رياح 170º 1kt
مجال رؤية >10km
حالة الطقس -
غيوم Few Clouds 3000ft
الضغط 1017
تغيير No Significant change
خام LERI 281230Z 17001KT 9999 FEW030 23/10 Q1017 NOSIG

VFR

22°C / 12°C

[أكثر]
رياح variable 3kt
مجال رؤية >10km
حالة الطقس -
غيوم Few Clouds 3000ft
الضغط 1018
تغيير No Significant change
خام LERI 281200Z VRB03KT 9999 FEW030 22/12 Q1018 NOSIG

VFR

21°C / 13°C

[أكثر]
رياح variable 2kt
مجال رؤية >10km
حالة الطقس -
غيوم Few Clouds 3200ft
الضغط 1018
تغيير No Significant change
خام LERI 281130Z VRB02KT 9999 FEW032 21/13 Q1018 NOSIG

VFR

20°C / 12°C

[أكثر]
رياح variable 2kt
مجال رؤية >10km
حالة الطقس -
غيوم Few Clouds 3200ft
الضغط 1019
تغيير No Significant change
خام LERI 281100Z VRB02KT 9999 FEW032 20/12 Q1019 NOSIG

VFR

18°C / 12°C

[أكثر]
رياح variable 2kt
مجال رؤية >10km
حالة الطقس -
غيوم Few Clouds 3000ft
الضغط 1019
تغيير No Significant change
خام LERI 281030Z VRB02KT 9999 FEW030 18/12 Q1019 NOSIG

VFR

18°C / 12°C

[أكثر]
رياح variable 1kt
مجال رؤية >10km
حالة الطقس -
غيوم Few Clouds 3000ft
الضغط 1019
تغيير No Significant change
خام LERI 281000Z VRB01KT 9999 FEW030 18/12 Q1019 NOSIG

VFR

17°C / 11°C

[أكثر]
رياح variable 1kt
مجال رؤية >10km
حالة الطقس -
غيوم Few Clouds 3000ft
الضغط 1019
تغيير No Significant change
خام LERI 280930Z VRB01KT 9999 FEW030 17/11 Q1019 NOSIG

VFR

15°C / 12°C

[أكثر]
رياح 130º variable 080º to 170º 3kt
مجال رؤية >10km
حالة الطقس -
غيوم Few Clouds 3300ft
الضغط 1020
تغيير No Significant change
خام LERI 280900Z 13003KT 080V170 9999 FEW033 15/12 Q1020 NOSIG

VFR

14°C / 12°C

[أكثر]
رياح variable 2kt
مجال رؤية >10km
حالة الطقس -
غيوم Clouds and Visibility OK
الضغط 1019
تغيير No Significant change
خام LERI 280830Z VRB02KT CAVOK 14/12 Q1019 NOSIG

VFR

13°C / 12°C

[أكثر]
رياح variable 0kt
مجال رؤية >10km
حالة الطقس -
غيوم Clouds and Visibility OK
الضغط 1019
تغيير No Significant change
خام LERI 280800Z 00000KT CAVOK 13/12 Q1019 NOSIG

VFR

12°C / 11°C

[أكثر]
رياح variable 0kt
مجال رؤية >10km
حالة الطقس -
غيوم Clouds and Visibility OK
الضغط 1019
تغيير No Significant change
خام LERI 280730Z 00000KT CAVOK 12/11 Q1019 NOSIG

VFR

11°C / 10°C

[أكثر]
رياح 240º 2kt
مجال رؤية >10km
حالة الطقس -
غيوم Clouds and Visibility OK
الضغط 1019
تغيير No Significant change
خام LERI 280700Z 24002KT CAVOK 11/10 Q1019 NOSIG

VFR

10°C / 10°C

[أكثر]
رياح 240º 2kt
مجال رؤية >10km
حالة الطقس -
غيوم Clouds and Visibility OK
الضغط 1019
تغيير No Significant change
خام LERI 280630Z 24002KT CAVOK 10/10 Q1019 NOSIG

VFR

11°C / 10°C

[أكثر]
رياح 220º 4kt
مجال رؤية >10km
حالة الطقس -
غيوم Few Clouds 3600ft
الضغط 1019
تغيير No Significant change
خام LERI 280600Z 22004KT 9999 FEW036 11/10 Q1019 NOSIG

VFR

18°C / 12°C

[أكثر]
رياح 110º variable 070º to 130º 5kt
مجال رؤية >10km
حالة الطقس -
غيوم Few Clouds 4600ft
الضغط 1020
تغيير No Significant change
خام LERI 271800Z 11005KT 070V130 9999 FEW046 18/12 Q1020 NOSIG

VFR

18°C / 12°C

[أكثر]
رياح 90º variable 070º to 130º 5kt
مجال رؤية >10km
حالة الطقس -
غيوم Few Clouds 4500ft
الضغط 1020
تغيير No Significant change
خام LERI 271730Z 09005KT 070V130 9999 FEW045 18/12 Q1020 NOSIG

VFR

19°C / 13°C

[أكثر]
رياح 130º 4kt
مجال رؤية >10km
حالة الطقس -
غيوم Few Clouds 4600ft
الضغط 1020
تغيير No Significant change
خام LERI 271700Z 13004KT 9999 FEW046 19/13 Q1020 NOSIG

VFR

21°C / 14°C

[أكثر]
رياح 150º variable 110º to 170º 5kt
مجال رؤية >10km
حالة الطقس -
غيوم Few Clouds 4400ft
الضغط 1020
تغيير No Significant change
خام LERI 271630Z 15005KT 110V170 9999 FEW044 21/14 Q1020 NOSIG

VFR

21°C / 13°C

[أكثر]
رياح 160º variable 130º to 200º 6kt
مجال رؤية >10km
حالة الطقس -
غيوم Few Clouds 4300ft
الضغط 1020
تغيير No Significant change
خام LERI 271600Z 16006KT 130V200 9999 FEW043 21/13 Q1020 NOSIG

VFR

22°C / 12°C

[أكثر]
رياح 130º variable 080º to 160º 5kt
مجال رؤية >10km
حالة الطقس -
غيوم Few Clouds 4000ft
الضغط 1020
تغيير No Significant change
خام LERI 271530Z 13005KT 080V160 9999 FEW040 22/12 Q1020 NOSIG

انقر لAlcantarilla (LERI)

From till


Maximum Temperature 24ºC on . Minimum Temperature 10ºC on .
From till Wind variable 3kt. Visibility 10km or more. Few Clouds 3500ft.
With 40% probability, Temporarly from till Wind 180º 10kt.

خام: TAF LERI 281100Z 2812/2912 VRB03KT 9999 FEW035 TX24/2814Z TN10/2906Z PROB40 TEMPO 2814/2819 18010KT

صور الأقمار الصناعية الملتقطة و الأمطار حالياً لAlcantarilla, أسبانيا

المؤشر يدل على موقع Alcantarilla. [أكثر]

تجمع صورة الأقمار الصناعية في الوقت الفعلي بين الضوء المرئي أثناء النهار والأشعة تحت الحمراء أثناء الليل. لا تبدو الصورة مظلمة ليلاً، لأن الأشعة تحت الحمراء يمكنها الكشف عن الاختلافات في درجة الحرارة. لسوء الحظ ، يصعب التمييز بين السحب المنخفضة والضباب ودرجات حرارة الأرض ، وبالتالي يمكن أن تكون الصور غير مرئية تقريبًا أثناء الليل. يتم تحديث صور الأقمار الصناعية Meteosat الخاصة بأوروبا في الوقت الفعلي كل 5 دقائق، بينما يتم تحديث صور GOES-16 / GOES-17 (أمريكا الشمالية والجنوبية) و Himawari (آسيا) كل 10 دقائق.

يقدر هطول الأمطار من الرادار والأقمار الصناعية. تقديرات هطول الأمطار ليلا من قبل الأقمار الصناعية هي أقل دقة من النهار. اللون البرتقالي يعبر الأماكن حيث تم الكشف عن البرق (أكثر من أوروبا).

حقوق النسخ 2021 EUMETSAT / meteoblue. بيانات البرق مقدمة من nowcast.

رادار لAlcantarilla

رذاذ
ضوء
معتدل
ثقيل
ثقيل جدا
وابل

مؤشر المكان يشير الى Alcantarilla. تظهر في هذه الرسوم المتحركة هطول الامطار بالرادار للساعات ال1 الماضية. رذاذ أو تساقط ثلوج خفيف قد يكون غير مرئي للرادار. كثافة هطول الأمطار مرمزة بالألوان وتتراوح من الأزرق الفاتح إلى البرتقالي.
Radar data source: AEMET.